Time;durP1;ratioP1;P1;durP2;ratioP2;P2;SDS_P1;SDS_P2;PMS_P1;PMS_P2;Temp;Humidity;BMP_temperature;BMP_pressure;BME280_temperature;BME280_humidity;BME280_pressure;Samples;Min_cycle;Max_cycle;Signal;HPM_P1;HPM_P2
2021/09/20 00:00:31;;;;;;;8.13;5.78;;;;;;;13.43;66.42;97966.25;4960634;28;20039;-60
2021/09/20 00:02:57;;;;;;;8.93;6.22;;;;;;;13.21;67.22;97970.91;4961954;28;20405;-61
2021/09/20 00:05:22;;;;;;;9.30;6.40;;;;;;;13.09;66.57;97972.41;4961367;28;20070;-61
2021/09/20 00:07:47;;;;;;;8.98;6.82;;;;;;;13.33;66.78;97974.72;4960451;28;20122;-59
2021/09/20 00:10:13;;;;;;;9.05;6.00;;;;;;;13.37;67.31;97971.00;4960625;28;20023;-60
2021/09/20 00:12:38;;;;;;;9.50;6.20;;;;;;;13.23;66.88;97969.06;4960489;28;20030;-61
2021/09/20 00:15:05;;;;;;;8.55;6.20;;;;;;;13.27;66.59;97976.69;4961707;28;20031;-61
2021/09/20 00:17:31;;;;;;;10.60;6.70;;;;;;;13.05;67.45;97976.09;4961259;28;20105;-59
2021/09/20 00:20:00;;;;;;;10.95;6.38;;;;;;;13.04;67.31;97982.25;4961088;28;20027;-61
2021/09/20 00:22:25;;;;;;;9.48;6.20;;;;;;;13.08;67.60;97981.16;4962915;28;20050;-60
2021/09/20 00:24:50;;;;;;;9.77;6.60;;;;;;;13.11;66.71;97988.88;4965339;28;20034;-61
2021/09/20 00:27:16;;;;;;;11.02;6.78;;;;;;;13.15;66.95;97982.56;4964396;28;20049;-59
2021/09/20 00:29:41;;;;;;;9.05;6.78;;;;;;;13.22;66.69;97991.78;4965183;28;20039;-60
2021/09/20 00:32:07;;;;;;;9.05;6.55;;;;;;;13.25;66.51;97991.63;4963963;28;20037;-58
2021/09/20 00:34:32;;;;;;;9.63;6.60;;;;;;;13.25;66.43;97983.78;4965669;28;20038;-59
2021/09/20 00:36:58;;;;;;;12.88;6.90;;;;;;;13.27;66.53;97996.78;4963309;28;20049;-59
2021/09/20 00:39:23;;;;;;;10.30;6.80;;;;;;;13.15;66.90;97987.78;4965034;28;20018;-59
2021/09/20 00:41:49;;;;;;;11.40;6.88;;;;;;;13.20;66.40;97992.81;4947733;28;20042;-60
2021/09/20 00:44:14;;;;;;;8.27;6.15;;;;;;;13.07;67.36;97992.59;4965313;28;20037;-59
2021/09/20 00:46:40;;;;;;;8.52;6.10;;;;;;;13.32;66.73;97993.97;4964834;28;20503;-59
2021/09/20 00:49:05;;;;;;;9.65;6.40;;;;;;;13.51;66.38;97994.69;4964561;28;20073;-59
2021/09/20 00:51:31;;;;;;;8.27;6.13;;;;;;;13.42;66.49;97997.81;4948169;28;20057;-58
2021/09/20 00:53:57;;;;;;;9.38;6.70;;;;;;;13.27;66.38;97997.63;4964329;28;20500;-59
2021/09/20 00:56:22;;;;;;;8.65;5.78;;;;;;;13.03;67.18;97993.66;4964166;28;20043;-60
2021/09/20 00:58:48;;;;;;;8.85;6.60;;;;;;;13.29;66.94;97993.16;4964290;28;20666;-61
2021/09/20 01:01:13;;;;;;;13.77;7.20;;;;;;;13.30;66.25;97991.38;4964317;28;20206;-57
2021/09/20 01:03:42;;;;;;;10.27;6.80;;;;;;;13.36;66.30;97996.34;4964763;28;20041;-61
2021/09/20 01:06:09;;;;;;;10.13;7.07;;;;;;;12.70;67.96;97989.19;4964060;28;20433;-59
2021/09/20 01:08:34;;;;;;;9.52;6.47;;;;;;;12.83;67.82;97992.91;4964118;28;20023;-59
2021/09/20 01:11:00;;;;;;;9.25;6.50;;;;;;;13.05;67.05;97982.19;4963286;28;20055;-60
2021/09/20 01:13:25;;;;;;;8.77;6.40;;;;;;;13.20;67.53;97992.81;4949515;28;20113;-59
2021/09/20 01:15:54;;;;;;;9.00;6.63;;;;;;;13.20;67.01;97991.03;4948934;28;20098;-59
2021/09/20 01:18:20;;;;;;;8.40;6.30;;;;;;;13.37;66.27;97991.94;4963479;28;20540;-59
2021/09/20 01:20:45;;;;;;;10.40;6.78;;;;;;;13.00;67.88;97994.66;4962824;28;20038;-60
2021/09/20 01:23:14;;;;;;;11.15;6.35;;;;;;;12.96;67.66;97998.38;4964004;28;20073;-59
2021/09/20 01:25:42;;;;;;;8.98;6.18;;;;;;;13.37;67.94;98002.44;4963890;28;20039;-60
2021/09/20 01:28:08;;;;;;;9.23;6.45;;;;;;;12.97;67.38;97999.22;4964229;28;20035;-61
2021/09/20 01:30:33;;;;;;;9.43;6.70;;;;;;;13.04;67.74;98000.59;4963344;28;20038;-59
2021/09/20 01:32:59;;;;;;;9.25;6.55;;;;;;;13.24;67.50;98007.44;4962529;28;20031;-59
2021/09/20 01:35:25;;;;;;;10.07;7.30;;;;;;;12.78;68.30;98000.13;4963149;28;20042;-61
2021/09/20 01:37:51;;;;;;;10.25;6.80;;;;;;;13.00;67.82;98004.28;4963490;28;20022;-58
2021/09/20 01:40:16;;;;;;;10.75;6.63;;;;;;;13.08;68.00;98004.75;4961926;28;20081;-59
2021/09/20 01:42:42;;;;;;;11.27;6.70;;;;;;;13.18;68.24;98003.34;4963874;28;20162;-59
2021/09/20 01:45:09;;;;;;;9.80;6.28;;;;;;;13.34;67.12;98002.59;4963077;28;20027;-61
2021/09/20 01:47:35;;;;;;;9.88;6.78;;;;;;;13.29;67.16;98001.03;4937509;28;20081;-58
2021/09/20 01:50:00;;;;;;;10.07;6.75;;;;;;;13.06;68.10;97999.56;4945981;28;20031;-60
2021/09/20 01:52:26;;;;;;;9.07;6.78;;;;;;;13.09;68.93;98003.81;4962642;28;20113;-61
2021/09/20 01:54:51;;;;;;;8.02;5.47;;;;;;;13.55;67.74;98000.63;4962872;28;20058;-58
2021/09/20 01:57:17;;;;;;;9.98;6.88;;;;;;;12.99;69.57;97990.34;4962302;28;20051;-61
2021/09/20 01:59:42;;;;;;;9.50;6.43;;;;;;;13.36;68.65;97996.34;4963387;28;20031;-59
2021/09/20 02:02:08;;;;;;;9.88;7.05;;;;;;;13.32;67.92;97993.97;4945731;28;20130;-60
2021/09/20 02:04:33;;;;;;;9.20;6.78;;;;;;;13.30;69.14;97996.63;4962716;28;20571;-62
2021/09/20 02:07:01;;;;;;;8.35;6.20;;;;;;;13.38;68.05;97994.50;4963120;28;20452;-59
2021/09/20 02:09:27;;;;;;;9.50;6.50;;;;;;;13.05;68.73;97997.91;4962837;28;20031;-61
2021/09/20 02:11:52;;;;;;;9.32;6.95;;;;;;;13.08;66.78;97991.66;4962445;28;20051;-59
2021/09/20 02:14:17;;;;;;;8.45;6.15;;;;;;;13.61;66.73;97990.66;4946545;28;20033;-59
2021/09/20 02:16:43;;;;;;;8.77;6.63;;;;;;;13.15;67.40;97992.19;4962263;28;20066;-61
2021/09/20 02:19:09;;;;;;;10.07;7.03;;;;;;;13.28;68.78;97994.06;4962797;28;20121;-61
2021/09/20 02:21:34;;;;;;;9.43;6.88;;;;;;;13.25;68.70;97999.50;4962382;28;20050;-61
2021/09/20 02:24:00;;;;;;;10.23;7.25;;;;;;;12.65;70.14;97994.66;4963116;28;20030;-59
2021/09/20 02:26:25;;;;;;;9.40;6.88;;;;;;;13.04;68.98;97996.19;4962420;28;20038;-62
2021/09/20 02:28:50;;;;;;;10.77;6.85;;;;;;;13.15;67.71;97998.25;4962759;28;20106;-59
2021/09/20 02:31:16;;;;;;;9.50;6.63;;;;;;;13.22;67.71;97994.41;4962091;28;20124;-59
2021/09/20 02:33:41;;;;;;;10.95;7.30;;;;;;;13.00;68.31;97991.22;4963041;28;20034;-62
2021/09/20 02:36:08;;;;;;;10.48;7.13;;;;;;;13.15;68.55;97998.25;4962388;28;20035;-61
2021/09/20 02:38:34;;;;;;;10.40;6.40;;;;;;;13.52;68.68;97996.38;4962618;28;20031;-59
2021/09/20 02:41:00;;;;;;;10.68;7.32;;;;;;;13.11;67.77;97992.34;4962614;28;20050;-61
2021/09/20 02:43:25;;;;;;;11.63;7.50;;;;;;;12.97;67.83;97992.19;4964224;28;20109;-61
2021/09/20 02:45:51;;;;;;;10.82;7.13;;;;;;;13.13;67.93;97994.03;4962716;28;20084;-60
2021/09/20 02:48:16;;;;;;;9.57;6.75;;;;;;;13.16;68.08;98002.59;4963822;28;20066;-59
2021/09/20 02:50:43;;;;;;;9.60;7.05;;;;;;;13.01;67.51;97995.50;4962723;28;20408;-61
2021/09/20 02:53:08;;;;;;;11.18;7.50;;;;;;;13.06;67.97;97998.75;4963351;28;20063;-61
2021/09/20 02:55:34;;;;;;;10.13;6.60;;;;;;;13.16;68.05;98004.34;4946629;28;20035;-61
2021/09/20 02:57:59;;;;;;;11.05;6.90;;;;;;;13.12;67.82;97998.41;4962877;28;20038;-59
2021/09/20 03:00:25;;;;;;;11.13;7.03;;;;;;;13.13;67.49;98004.53;4962040;28;20038;-60
2021/09/20 03:02:50;;;;;;;11.77;7.38;;;;;;;12.99;67.61;98002.59;4963845;28;20050;-62
2021/09/20 03:05:16;;;;;;;10.60;7.30;;;;;;;13.02;68.56;98007.69;4963374;28;20038;-60
2021/09/20 03:07:41;;;;;;;9.60;6.70;;;;;;;12.85;68.77;98005.91;4963341;28;20160;-60
2021/09/20 03:10:07;;;;;;;9.07;6.32;;;;;;;13.00;68.95;98004.28;4962752;28;20026;-60
2021/09/20 03:12:33;;;;;;;10.18;7.20;;;;;;;13.19;67.48;98006.81;4963411;28;20102;-61
2021/09/20 03:14:58;;;;;;;9.05;6.95;;;;;;;12.98;67.40;98007.00;4962572;28;20144;-63
2021/09/20 03:17:23;;;;;;;9.77;6.80;;;;;;;13.15;67.26;98003.50;4963097;28;20042;-62
2021/09/20 03:19:49;;;;;;;9.07;6.65;;;;;;;12.91;67.96;98010.84;4962385;28;20573;-60
2021/09/20 03:22:14;;;;;;;9.73;6.88;;;;;;;13.04;67.46;98003.22;4963168;28;20448;-59
2021/09/20 03:24:40;;;;;;;10.20;6.65;;;;;;;13.01;67.89;98006.84;4963739;28;20065;-59
2021/09/20 03:27:06;;;;;;;8.60;6.57;;;;;;;13.18;67.72;98011.22;4962451;28;20046;-62
2021/09/20 03:29:31;;;;;;;10.65;7.32;;;;;;;13.30;67.52;98007.97;4963092;28;20034;-59
2021/09/20 03:31:57;;;;;;;10.80;6.80;;;;;;;13.26;67.30;98003.78;4960715;28;20073;-61
2021/09/20 03:34:22;;;;;;;9.90;7.32;;;;;;;12.93;69.02;98009.81;4963622;28;20027;-62
2021/09/20 03:36:48;;;;;;;9.27;6.82;;;;;;;13.25;67.66;98009.97;4961260;28;20093;-61
2021/09/20 03:39:13;;;;;;;11.50;7.22;;;;;;;12.50;71.82;98017.19;4961387;28;20116;-65
2021/09/20 03:41:38;;;;;;;10.07;7.07;;;;;;;11.99;73.82;98021.38;4961400;28;20103;-60
2021/09/20 03:44:04;;;;;;;11.45;6.88;;;;;;;12.64;71.91;98018.28;4961800;28;20034;-62
2021/09/20 03:46:30;;;;;;;8.52;6.55;;;;;;;12.83;69.75;98013.84;4961513;28;20381;-59
2021/09/20 03:48:55;;;;;;;10.15;7.00;;;;;;;12.83;69.53;98019.09;4961387;28;20114;-59
2021/09/20 03:51:21;;;;;;;9.65;7.05;;;;;;;13.10;69.26;98027.31;4961376;28;20563;-59
2021/09/20 03:53:46;;;;;;;9.02;6.82;;;;;;;12.81;70.98;98020.06;4962053;28;20035;-59
2021/09/20 03:56:12;;;;;;;9.70;7.07;;;;;;;12.65;71.93;98020.84;4962575;28;20039;-59
2021/09/20 03:58:37;;;;;;;10.07;6.95;;;;;;;12.60;71.13;98021.97;4948424;28;20015;-60
2021/09/20 04:01:04;;;;;;;10.10;7.20;;;;;;;12.87;69.75;98023.22;4964717;28;20039;-61
2021/09/20 04:03:29;;;;;;;8.80;6.00;;;;;;;12.98;69.12;98021.84;4948603;28;20395;-61
2021/09/20 04:05:55;;;;;;;11.85;6.95;;;;;;;12.71;69.47;98024.91;4965036;28;20662;-58
2021/09/20 04:08:27;;;;;;;11.85;8.38;;;;;;;12.67;69.68;98023.38;4964791;28;20062;-61
2021/09/20 04:10:52;;;;;;;14.93;10.10;;;;;;;12.60;69.35;98029.81;4964922;28;20051;-62
2021/09/20 04:13:17;;;;;;;10.77;7.28;;;;;;;12.71;69.77;98025.75;4964687;28;20027;-61
2021/09/20 04:15:43;;;;;;;9.88;6.75;;;;;;;12.75;69.71;98025.63;4964162;28;20097;-59
2021/09/20 04:18:08;;;;;;;9.35;6.60;;;;;;;12.81;69.79;98027.91;4965612;28;20030;-61
2021/09/20 04:20:34;;;;;;;9.32;6.97;;;;;;;12.62;69.79;98036.66;4964762;28;20042;-61
2021/09/20 04:22:59;;;;;;;10.07;7.00;;;;;;;12.67;69.56;98029.44;4964676;28;20534;-59
2021/09/20 04:25:25;;;;;;;10.30;6.63;;;;;;;12.81;68.88;98026.16;4965257;28;20671;-61
2021/09/20 04:27:50;;;;;;;8.55;6.57;;;;;;;12.87;67.71;98028.47;4965591;28;20073;-61
2021/09/20 04:30:16;;;;;;;10.32;7.03;;;;;;;12.45;69.55;98040.09;4962904;28;20041;-60
2021/09/20 04:32:42;;;;;;;9.77;6.28;;;;;;;12.84;68.42;98044.31;4947873;28;20391;-61
2021/09/20 04:35:08;;;;;;;9.40;6.45;;;;;;;12.62;69.96;98041.06;4963741;28;20495;-59
2021/09/20 04:37:34;;;;;;;11.00;6.90;;;;;;;12.70;68.08;98049.38;4964586;28;20065;-61
2021/09/20 04:39:59;;;;;;;9.48;6.82;;;;;;;12.69;69.39;98042.47;4964864;28;20584;-61
2021/09/20 04:42:25;;;;;;;9.60;6.80;;;;;;;12.83;68.83;98050.50;4963782;28;20038;-61
2021/09/20 04:44:50;;;;;;;9.57;6.80;;;;;;;12.82;68.42;98058.41;4964286;28;20033;-59
2021/09/20 04:47:16;;;;;;;9.45;6.65;;;;;;;13.13;68.42;98059.50;4964381;28;20781;-62
2021/09/20 04:49:41;;;;;;;9.30;6.70;;;;;;;12.63;69.20;98056.69;4964547;28;20037;-60
2021/09/20 04:52:07;;;;;;;9.80;6.43;;;;;;;12.64;70.41;98061.00;4964468;28;20046;-59
2021/09/20 04:54:33;;;;;;;9.73;6.80;;;;;;;12.66;70.23;98071.38;4965170;28;20060;-61
2021/09/20 04:56:58;;;;;;;9.63;7.10;;;;;;;12.78;69.53;98073.41;4962970;28;20610;-59
2021/09/20 04:59:24;;;;;;;9.45;6.40;;;;;;;13.13;68.81;98068.22;4964112;28;20023;-62
2021/09/20 05:01:49;;;;;;;9.73;6.93;;;;;;;12.44;70.28;98069.81;4964029;28;20393;-61
2021/09/20 05:04:14;;;;;;;9.95;7.22;;;;;;;12.47;70.80;98069.66;4964319;28;20206;-59
2021/09/20 05:06:40;;;;;;;10.20;7.07;;;;;;;12.65;69.85;98072.31;4964211;28;20046;-60
2021/09/20 05:09:07;;;;;;;12.52;7.45;;;;;;;12.64;69.64;98065.38;4963343;28;20030;-59
2021/09/20 05:11:33;;;;;;;11.98;6.72;;;;;;;12.63;70.74;98076.78;4963228;28;20065;-60
2021/09/20 05:13:58;;;;;;;10.00;6.63;;;;;;;12.91;70.12;98084.97;4964340;28;20500;-60
2021/09/20 05:16:23;;;;;;;12.15;7.20;;;;;;;12.60;70.60;98084.78;4962676;28;20038;-59
2021/09/20 05:18:49;;;;;;;10.85;7.20;;;;;;;12.64;70.48;98081.09;4963546;28;20027;-59
2021/09/20 05:21:14;;;;;;;9.18;6.80;;;;;;;12.58;70.38;98089.25;4963454;28;20125;-60
2021/09/20 05:23:39;;;;;;;11.35;6.90;;;;;;;12.28;73.00;98084.53;4964502;28;20027;-62
2021/09/20 05:26:05;;;;;;;12.80;7.78;;;;;;;12.25;73.63;98092.53;4963693;28;20146;-59
2021/09/20 05:28:30;;;;;;;10.95;7.20;;;;;;;12.57;73.53;98095.38;4948443;28;20031;-59
2021/09/20 05:30:56;;;;;;;9.65;6.88;;;;;;;12.73;73.39;98091.13;4962525;28;20041;-59
2021/09/20 05:33:21;;;;;;;11.25;6.85;;;;;;;12.58;73.35;98097.09;4962885;28;20070;-61
2021/09/20 05:35:47;;;;;;;10.90;6.78;;;;;;;12.41;74.01;98096.13;4963698;28;20125;-59
2021/09/20 05:38:14;;;;;;;9.68;6.85;;;;;;;12.58;73.66;98095.31;4963906;28;20022;-61
2021/09/20 05:40:41;;;;;;;11.30;7.05;;;;;;;12.49;74.25;98098.38;4962920;28;20057;-58
2021/09/20 05:43:07;;;;;;;10.23;7.00;;;;;;;12.64;73.44;98095.00;4946708;28;20662;-58
2021/09/20 05:45:32;;;;;;;8.85;6.82;;;;;;;12.50;73.35;98106.16;4962802;28;20047;-60
2021/09/20 05:48:00;;;;;;;9.00;6.72;;;;;;;12.51;73.40;98099.97;4963181;28;20034;-62
2021/09/20 05:50:26;;;;;;;8.07;5.88;;;;;;;13.00;73.09;98117.72;4962193;28;20070;-59
2021/09/20 05:52:51;;;;;;;8.60;6.40;;;;;;;12.97;72.10;98109.16;4961667;28;20043;-59
2021/09/20 05:55:17;;;;;;;10.38;6.60;;;;;;;12.60;72.63;98116.19;4963266;28;20043;-60
2021/09/20 05:57:42;;;;;;;8.98;6.53;;;;;;;12.23;73.95;98117.91;4963723;28;20018;-61
2021/09/20 06:00:09;;;;;;;8.70;6.60;;;;;;;12.45;72.78;98117.75;4963102;28;20370;-59
2021/09/20 06:02:34;;;;;;;8.95;6.63;;;;;;;12.71;72.34;98117.34;4962208;28;20078;-60
2021/09/20 06:05:00;;;;;;;10.65;7.18;;;;;;;12.54;71.86;98123.38;4963407;28;20035;-59
2021/09/20 06:07:26;;;;;;;11.93;6.97;;;;;;;12.45;72.28;98123.81;4963223;28;20101;-62
2021/09/20 06:09:51;;;;;;;10.27;6.35;;;;;;;12.60;72.21;98121.41;4962983;28;20031;-59
2021/09/20 06:12:17;;;;;;;12.45;7.00;;;;;;;12.52;71.76;98125.22;4962089;28;20501;-59
2021/09/20 06:14:43;;;;;;;9.82;6.72;;;;;;;12.83;71.51;98118.56;4963514;28;20172;-61
2021/09/20 06:17:08;;;;;;;9.10;6.47;;;;;;;12.69;70.96;98120.97;4946583;28;20039;-58
2021/09/20 06:19:34;;;;;;;10.30;7.22;;;;;;;12.77;71.85;98116.19;4962177;28;20027;-59
2021/09/20 06:21:59;;;;;;;8.65;5.78;;;;;;;13.33;69.71;98121.41;4962496;28;20047;-59
2021/09/20 06:24:24;;;;;;;8.10;5.75;;;;;;;13.04;69.65;98121.88;4963506;28;20041;-60
2021/09/20 06:26:50;;;;;;;9.27;5.93;;;;;;;13.22;67.96;98129.75;4962679;28;20039;-59
2021/09/20 06:29:15;;;;;;;13.48;6.30;;;;;;;13.35;66.84;98130.03;4962871;28;20035;-60
2021/09/20 06:31:41;;;;;;;10.13;6.45;;;;;;;12.74;69.45;98139.94;4961412;28;20560;-62
2021/09/20 06:34:06;;;;;;;8.00;5.90;;;;;;;13.10;68.68;98136.44;4962900;28;20161;-62
2021/09/20 06:36:32;;;;;;;9.30;5.53;;;;;;;13.29;68.59;98129.38;4962330;28;20050;-60
2021/09/20 06:38:57;;;;;;;9.95;6.43;;;;;;;13.37;68.20;98136.03;4945014;28;20640;-60
2021/09/20 06:41:24;;;;;;;9.10;6.00;;;;;;;13.36;68.82;98131.72;4962169;28;20043;-60
2021/09/20 06:43:50;;;;;;;9.20;5.97;;;;;;;13.40;68.63;98131.50;4949354;28;20679;-61
2021/09/20 06:46:15;;;;;;;10.63;6.28;;;;;;;13.25;67.56;98138.31;4962320;28;20512;-60
2021/09/20 06:48:42;;;;;;;10.73;6.22;;;;;;;13.35;67.11;98136.13;4962051;28;20113;-59
2021/09/20 06:51:08;;;;;;;8.77;6.05;;;;;;;13.26;67.63;98137.38;4962197;28;20550;-58
2021/09/20 06:53:33;;;;;;;9.88;6.25;;;;;;;12.62;69.22;98143.97;4962020;28;20023;-59
2021/09/20 06:55:59;;;;;;;8.98;6.25;;;;;;;13.06;68.04;98145.38;4962148;28;20126;-59
2021/09/20 06:58:24;;;;;;;9.52;6.15;;;;;;;13.14;68.08;98139.75;4962030;28;20601;-58
2021/09/20 07:00:50;;;;;;;7.97;5.78;;;;;;;13.22;67.10;98151.56;4945490;28;20047;-58
2021/09/20 07:03:15;;;;;;;7.75;5.78;;;;;;;13.29;67.28;98158.19;4961840;28;20060;-59
2021/09/20 07:05:41;;;;;;;10.68;6.38;;;;;;;12.97;67.60;98156.28;4961766;28;20117;-58
2021/09/20 07:08:07;;;;;;;9.30;5.60;;;;;;;13.52;66.17;98163.25;4961508;28;20493;-60
2021/09/20 07:10:32;;;;;;;7.85;6.00;;;;;;;13.38;65.78;98163.91;4961784;28;20121;-58
2021/09/20 07:12:58;;;;;;;7.60;5.55;;;;;;;13.24;65.74;98170.66;4962533;28;20091;-60
2021/09/20 07:15:23;;;;;;;8.57;6.22;;;;;;;12.90;66.35;98172.31;4961459;28;20030;-59
2021/09/20 07:17:49;;;;;;;8.68;6.00;;;;;;;12.98;67.37;98169.31;4962466;28;20523;-58
2021/09/20 07:20:15;;;;;;;11.15;6.43;;;;;;;13.28;66.33;98174.81;4960800;28;20126;-59
2021/09/20 07:22:43;;;;;;;8.90;6.10;;;;;;;13.19;65.99;98174.44;4961946;28;20131;-61
2021/09/20 07:25:08;;;;;;;8.73;6.22;;;;;;;12.70;67.58;98175.00;4961081;28;20093;-59
2021/09/20 07:27:34;;;;;;;9.95;5.88;;;;;;;13.25;65.94;98172.38;4961032;28;20359;-61
2021/09/20 07:30:00;;;;;;;8.90;6.22;;;;;;;13.17;67.22;98182.38;4961525;28;20218;-61
2021/09/20 07:32:25;;;;;;;8.38;5.85;;;;;;;13.33;65.68;98173.81;4961327;28;20075;-62
2021/09/20 07:34:51;;;;;;;8.27;5.68;;;;;;;13.20;65.56;98179.59;4961034;28;20481;-61
2021/09/20 07:37:16;;;;;;;9.60;5.93;;;;;;;13.26;65.49;98184.53;4959509;28;20042;-63
2021/09/20 07:39:42;;;;;;;8.68;6.40;;;;;;;13.12;66.30;98186.97;4912781;28;20031;-63
2021/09/20 07:42:09;;;;;;;7.55;5.35;;;;;;;13.72;65.15;98181.41;4960764;28;20038;-61
2021/09/20 07:44:35;;;;;;;8.13;5.63;;;;;;;13.58;65.79;98190.00;4961536;28;20030;-61
2021/09/20 07:47:01;;;;;;;11.27;6.07;;;;;;;13.61;65.36;98192.44;4961504;28;20039;-61
2021/09/20 07:49:27;;;;;;;11.00;6.28;;;;;;;13.09;66.94;98192.38;4959733;28;20368;-63
2021/09/20 07:51:52;;;;;;;9.32;5.72;;;;;;;13.53;65.83;98194.63;4961786;28;20045;-61
2021/09/20 07:54:18;;;;;;;8.57;5.97;;;;;;;13.65;66.63;98201.84;4962224;28;20023;-61
2021/09/20 07:56:43;;;;;;;10.02;5.85;;;;;;;13.65;65.66;98199.22;4961033;28;20046;-62
2021/09/20 07:59:09;;;;;;;9.00;5.82;;;;;;;13.54;65.92;98193.69;4961240;28;20051;-59
2021/09/20 08:01:35;;;;;;;9.00;6.35;;;;;;;13.27;66.39;98193.22;4959559;28;20065;-62
2021/09/20 08:04:01;;;;;;;12.13;6.32;;;;;;;13.25;67.00;98195.06;4961636;28;20034;-63
2021/09/20 08:06:28;;;;;;;11.05;6.93;;;;;;;13.77;65.49;98194.31;4960880;28;20042;-61
2021/09/20 08:08:53;;;;;;;9.52;6.20;;;;;;;14.05;64.36;98194.56;4961066;28;20030;-62
2021/09/20 08:11:18;;;;;;;8.00;5.82;;;;;;;14.17;63.60;98195.72;4960680;28;20045;-63
2021/09/20 08:13:44;;;;;;;8.65;5.80;;;;;;;14.26;62.87;98191.75;4961768;28;20031;-63
2021/09/20 08:16:09;;;;;;;7.85;5.82;;;;;;;14.20;63.32;98197.31;4960761;28;20050;-62
2021/09/20 08:18:35;;;;;;;9.55;6.10;;;;;;;14.08;63.75;98199.66;4961140;28;20480;-63
2021/09/20 08:21:00;;;;;;;10.60;5.47;;;;;;;14.08;63.35;98204.91;4961014;28;20043;-63
2021/09/20 08:23:26;;;;;;;7.32;5.10;;;;;;;14.40;61.88;98197.09;4940626;28;20527;-61
2021/09/20 08:25:54;;;;;;;9.68;5.85;;;;;;;14.75;63.25;98210.13;4961147;28;20152;-64
2021/09/20 08:28:19;;;;;;;10.50;5.65;;;;;;;14.58;62.16;98197.94;4960963;28;20058;-63
2021/09/20 08:30:45;;;;;;;9.35;5.22;;;;;;;14.49;62.73;98205.44;4960598;28;20576;-63
2021/09/20 08:33:10;;;;;;;9.57;5.20;;;;;;;14.05;63.41;98202.44;4961135;28;20027;-61
2021/09/20 08:35:36;;;;;;;7.68;5.75;;;;;;;14.21;62.58;98210.38;4961085;28;20043;-63
2021/09/20 08:38:01;;;;;;;8.13;5.03;;;;;;;14.19;62.88;98216.59;4960823;28;20408;-63
2021/09/20 08:40:27;;;;;;;8.07;5.07;;;;;;;14.01;61.82;98216.63;4959291;28;20489;-62
2021/09/20 08:42:54;;;;;;;10.70;5.43;;;;;;;14.00;62.35;98214.94;4962036;28;20038;-63
2021/09/20 08:45:21;;;;;;;10.32;5.80;;;;;;;14.37;62.07;98218.28;4963944;28;20026;-62
2021/09/20 08:47:48;;;;;;;8.07;5.47;;;;;;;13.62;64.04;98223.00;4964438;28;20019;-64
2021/09/20 08:50:16;;;;;;;10.02;5.28;;;;;;;14.34;61.78;98234.19;4963762;28;20114;-63
2021/09/20 08:52:41;;;;;;;8.13;5.13;;;;;;;14.07;61.16;98228.59;4964961;28;20770;-61
2021/09/20 08:55:08;;;;;;;6.53;4.78;;;;;;;14.29;61.15;98233.56;4960974;28;20121;-64
2021/09/20 08:57:33;;;;;;;7.43;4.78;;;;;;;14.26;61.16;98234.59;4963648;28;20386;-63
2021/09/20 09:00:00;;;;;;;10.88;5.55;;;;;;;13.65;62.42;98238.53;4963891;28;20503;-61
2021/09/20 09:02:29;;;;;;;11.32;5.07;;;;;;;14.20;61.00;98237.50;4945243;28;20592;-60
2021/09/20 09:05:11;;;;;;;8.30;5.28;;;;;;;14.06;61.43;98238.25;4964453;28;20034;-59
2021/09/20 09:07:48;;;;;;;9.93;5.30;;;;;;;13.94;62.13;98230.16;4963952;28;20092;-59
2021/09/20 09:10:14;;;;;;;7.15;4.82;;;;;;;14.31;61.07;98236.13;4962838;28;20630;-61
2021/09/20 09:12:40;;;;;;;7.50;5.00;;;;;;;14.26;61.54;98233.72;4964748;28;20031;-61
2021/09/20 09:15:09;;;;;;;6.57;4.50;;;;;;;14.43;60.97;98238.94;4963406;28;20035;-61
2021/09/20 09:17:46;;;;;;;8.80;5.22;;;;;;;13.76;61.81;98234.53;4963430;28;20047;-59
2021/09/20 09:20:33;;;;;;;8.75;5.22;;;;;;;13.65;62.69;98238.53;4963630;28;20125;-59
2021/09/20 09:23:02;;;;;;;7.05;5.15;;;;;;;14.51;60.67;98240.31;4963545;28;20026;-60
2021/09/20 09:25:28;;;;;;;11.88;5.28;;;;;;;14.55;60.83;98244.47;4963526;28;20492;-59
2021/09/20 09:27:58;;;;;;;7.15;4.93;;;;;;;14.44;61.69;98243.25;4964315;28;20031;-60
2021/09/20 09:30:26;;;;;;;7.32;5.00;;;;;;;14.39;62.70;98247.91;4962816;28;20038;-58
2021/09/20 09:33:11;;;;;;;8.50;5.00;;;;;;;14.45;60.19;98244.97;4962562;28;20038;-60
2021/09/20 09:35:38;;;;;;;7.22;4.93;;;;;;;14.37;60.94;98249.78;4963658;28;20100;-60
2021/09/20 09:38:07;;;;;;;8.23;4.95;;;;;;;14.39;60.21;98237.41;4962348;28;20042;-62
2021/09/20 09:40:46;;;;;;;9.45;4.82;;;;;;;14.78;59.92;98254.63;4962431;28;20039;-64
2021/09/20 09:43:12;;;;;;;9.27;5.32;;;;;;;14.13;61.13;98244.00;4964078;28;20162;-61
2021/09/20 09:45:37;;;;;;;6.75;4.93;;;;;;;14.54;60.00;98242.75;4963363;28;20043;-63
2021/09/20 09:48:15;;;;;;;6.38;4.50;;;;;;;14.49;59.64;98244.81;4963366;28;20080;-62
2021/09/20 09:50:47;;;;;;;10.75;5.03;;;;;;;14.60;59.48;98240.69;4945156;28;20046;-61
2021/09/20 09:53:24;;;;;;;9.93;5.20;;;;;;;14.42;60.75;98246.91;4962812;28;20035;-63
2021/09/20 09:55:50;;;;;;;7.55;4.68;;;;;;;14.55;60.61;98244.47;4962548;28;20035;-61
2021/09/20 09:58:17;;;;;;;6.80;4.70;;;;;;;14.55;60.39;98239.22;4962422;28;20070;-61
2021/09/20 10:00:46;;;;;;;7.45;4.95;;;;;;;15.01;59.30;98234.97;4962333;28;20041;-62
2021/09/20 10:03:11;;;;;;;7.22;4.60;;;;;;;15.22;59.07;98240.81;4963470;28;20037;-62
2021/09/20 10:05:37;;;;;;;7.05;4.95;;;;;;;15.53;57.97;98238.22;4961800;28;20125;-61
2021/09/20 10:08:12;;;;;;;7.63;4.70;;;;;;;15.84;57.63;98247.84;4963424;28;20122;-61
2021/09/20 10:10:40;;;;;;;6.05;4.40;;;;;;;15.72;57.85;98241.50;4962543;28;20057;-63
2021/09/20 10:13:07;;;;;;;6.80;4.75;;;;;;;15.61;57.49;98236.84;4962474;28;20030;-64
2021/09/20 10:15:34;;;;;;;7.35;4.40;;;;;;;15.58;58.43;98237.00;4962624;28;20053;-62
2021/09/20 10:18:00;;;;;;;8.30;4.70;;;;;;;15.77;58.14;98241.25;4961924;28;20035;-63
2021/09/20 10:20:27;;;;;;;6.15;4.63;;;;;;;14.95;58.77;98235.31;4962723;28;20041;-61
2021/09/20 10:22:54;;;;;;;6.78;4.93;;;;;;;15.67;58.09;98234.81;4962857;28;20125;-62
2021/09/20 10:25:22;;;;;;;7.97;4.68;;;;;;;15.98;56.51;98228.63;4961841;28;20031;-61
2021/09/20 10:27:48;;;;;;;10.98;4.50;;;;;;;15.28;58.19;98231.75;4946567;28;20031;-61
2021/09/20 10:30:29;;;;;;;7.97;4.82;;;;;;;15.68;58.17;98226.81;4962118;28;20070;-63
2021/09/20 10:32:59;;;;;;;6.60;4.30;;;;;;;16.46;55.85;98228.38;4962388;28;20150;-61
2021/09/20 10:35:26;;;;;;;7.68;4.30;;;;;;;16.61;54.45;98222.16;4944392;28;20038;-65
2021/09/20 10:37:54;;;;;;;6.85;4.25;;;;;;;16.77;54.21;98228.16;4962715;28;20034;-62
2021/09/20 10:40:20;;;;;;;6.57;4.65;;;;;;;16.72;54.10;98227.59;4961515;28;20265;-62
2021/09/20 10:43:00;;;;;;;6.93;4.07;;;;;;;16.99;52.59;98221.59;4962659;28;20763;-60
2021/09/20 10:45:39;;;;;;;6.47;4.30;;;;;;;17.30;52.56;98225.72;4961214;28;20047;-60
2021/09/20 10:48:22;;;;;;;6.43;4.28;;;;;;;17.14;52.35;98223.22;4962275;28;20022;-62
2021/09/20 10:50:55;;;;;;;5.10;3.95;;;;;;;18.32;51.61;98215.47;4961586;28;20073;-63
2021/09/20 10:53:33;;;;;;;7.00;4.55;;;;;;;18.78;49.79;98220.19;4962310;28;20093;-60
2021/09/20 10:56:01;;;;;;;6.10;4.28;;;;;;;19.53;48.17;98224.50;4929824;28;20093;-62
2021/09/20 10:58:28;;;;;;;7.45;4.22;;;;;;;18.57;48.86;98226.03;4961433;28;20019;-61
2021/09/20 11:01:11;;;;;;;6.03;4.07;;;;;;;18.82;47.87;98227.81;4961777;28;20134;-61
2021/09/20 11:03:45;;;;;;;5.43;4.10;;;;;;;18.08;49.32;98226.78;4961915;28;20409;-60
2021/09/20 11:06:30;;;;;;;6.05;4.30;;;;;;;19.13;47.69;98224.75;4961123;28;20089;-61
2021/09/20 11:08:58;;;;;;;7.50;3.80;;;;;;;18.82;47.61;98221.66;4961845;28;21021;-60
2021/09/20 11:14:15;;;;;;;4.82;3.58;;;;;;;19.31;46.27;98223.41;4962131;28;20042;-60
2021/09/20 11:16:52;;;;;;;5.35;3.30;;;;;;;19.56;45.69;98224.28;4961255;28;20039;-60
2021/09/20 11:19:31;;;;;;;5.05;3.50;;;;;;;18.30;46.57;98232.25;4961251;28;20045;-62
2021/09/20 11:22:05;;;;;;;5.28;3.67;;;;;;;18.90;45.28;98229.06;4961882;28;20126;-63
2021/09/20 11:24:36;;;;;;;7.60;3.78;;;;;;;19.30;44.99;98228.81;4961817;28;20053;-62
2021/09/20 11:27:03;;;;;;;6.35;3.83;;;;;;;19.02;45.24;98234.34;4960693;28;20504;-63
2021/09/20 11:29:29;;;;;;;5.57;3.83;;;;;;;18.53;45.46;98227.19;4961176;28;20039;-61
2021/09/20 11:31:56;;;;;;;5.15;3.83;;;;;;;19.05;45.52;98228.81;4960295;28;20042;-60